Chalk Hill, PA

8:45 AM EDT on October 02, 2014 (GMT -0400)
Donna's Weather | Change Station
CLOSE
Current Station
Personal Weather Station
Location: Markleysburg, PA
Elevation: 2306 ft
Nearby Weather Stations
Active Advisory: Dense Fog Advisory

Elev 2306 ft 39.77 °N, 79.50 °W | Updated 8 seconds ago

Partly Cloudy
Partly Cloudy
54.0 °F
Feels Like 54.0 °F
N
0.0
Wind Variable Wind from NW
Gusts 0.0 mph

Today
High -- | Low -- °F
--% Chance of Precip.
Yesterday
High -- | Low -- °F
Precip. -- in
7:15 AM 6:59 PM
First Quarter, 58% visible
Pressure 30.01 in
Visibility 0.2 miles
Clouds
Dew Point 53 °F
Humidity 98%
Rainfall 0.00 in
Snow Depth Not available.
UV Not available.
Pollen 2.60 out of 12
Air Quality Not available.
Flu Activity Not available.
METAR KMGW 011153Z 03005KT M1/4SM FG VV001 13/12 A3002 RMK AO2 SLP162 70068 T01330117 10139 20133 53013

More Conditions Fewer Conditions

Pressure 30.01 in
Visibility 0.2 miles
Clouds
Dew Point 53 °F
Humidity 98%
Rainfall 0.00 in
Snow Depth Not available.
UV Not available.
Pollen 2.60 out of 12
Air Quality Not available.
Flu Activity Not available.
METAR KMGW 011153Z 03005KT M1/4SM FG VV001 13/12 A3002 RMK AO2 SLP162 70068 T01330117 10139 20133 53013

More Conditions Fewer Conditions

10-Day Weather Forecast

Almanac

Astronomy

Oct. 02, 2014 Rise Set
Actual Time 7:15 AM EDT 6:59 PM EDT
Civil Twilight 6:48 AM EDT 7:26 PM EDT
Nautical Twilight 6:17 AM EDT 7:57 PM EDT
Astronomical Twilight 5:45 AM EDT 8:28 PM EDT
Moon 3:03 PM EDT 12:31 AM EDT
Length of Visible Light 12h 37m
Length of Day
11h 43m
Tomorrow will be 2m 35s shorter.
First Quarter, 58% of the Moon is Illuminated
Today
First Quarter
Oct 8
Full
Oct 15
Last Quarter
Oct 23
New
Oct 30
First Quarter

Today's Extremes

State Highs State Lows

Community

WunderPhotos

Upload Photos

1,758,226 photos uploaded!

WunderBlogs® & News

Nearby

Snow Depth

Station Depth Elevation
No new snow has been reported.

Earthquake Activity

City Distance Mag. Time & Date
No recent earthquake activity has been reported nearby.
Minimum magnitude displayed is 2.5.

Coastal Water Temperatures

Place Temperature
No Stations Reporting

Nearby Weather Stations